Time;durP1;ratioP1;P1;durP2;ratioP2;P2;SDS_P1;SDS_P2;PMS_P1;PMS_P2;Temp;Humidity;BMP_temperature;BMP_pressure;BME280_temperature;BME280_humidity;BME280_pressure;Samples;Min_cycle;Max_cycle;Signal;HPM_P1;HPM_P2
2021/07/30 10:00:39;;;;;;;8.95;3.50;;;16.90;82.10;;;;;;5069799;28;20417;-78
2021/07/30 10:03:09;;;;;;;9.45;4.05;;;16.70;85.00;;;;;;5054355;28;20080;-77
2021/07/30 10:05:36;;;;;;;10.32;3.97;;;16.90;86.20;;;;;;5056283;28;20113;-78
2021/07/30 10:08:02;;;;;;;10.05;3.58;;;17.20;86.50;;;;;;5062515;28;20507;-78
2021/07/30 10:10:29;;;;;;;5.85;2.83;;;17.50;87.00;;;;;;5057677;28;20043;-78
2021/07/30 10:13:00;;;;;;;6.75;2.67;;;17.80;87.10;;;;;;5040087;28;20025;-77
2021/07/30 10:15:27;;;;;;;7.47;3.33;;;18.00;86.80;;;;;;5040734;28;20086;-77
2021/07/30 10:17:56;;;;;;;8.05;2.70;;;18.20;86.60;;;;;;5058659;28;20024;-79
2021/07/30 10:20:23;;;;;;;10.65;3.50;;;18.30;86.60;;;;;;5056142;28;20017;-76
2021/07/30 10:23:06;;;;;;;10.65;4.03;;;18.40;86.60;;;;;;5060514;28;20017;-80
2021/07/30 10:25:47;;;;;;;6.03;2.60;;;18.50;87.00;;;;;;5057546;28;20051;-79
2021/07/30 10:28:25;;;;;;;6.53;2.85;;;18.60;86.40;;;;;;5054872;28;20375;-79
2021/07/30 10:30:58;;;;;;;8.73;3.15;;;18.80;86.60;;;;;;5068914;28;20025;-76
2021/07/30 10:33:48;;;;;;;6.70;3.10;;;18.90;86.30;;;;;;5068636;28;20032;-79
2021/07/30 10:36:34;;;;;;;5.72;2.53;;;19.00;86.40;;;;;;5066887;28;20029;-79
2021/07/30 10:39:25;;;;;;;6.38;2.92;;;19.20;85.80;;;;;;5070023;28;20104;-77
2021/07/30 10:42:17;;;;;;;5.55;2.22;;;19.20;85.40;;;;;;5068623;28;20049;-78
2021/07/30 10:45:17;;;;;;;5.63;2.40;;;19.10;85.00;;;;;;5068705;28;20101;-79
2021/07/30 10:47:43;;;;;;;9.35;2.85;;;19.10;85.50;;;;;;5067562;28;20029;-77
2021/07/30 10:50:40;;;;;;;7.45;2.50;;;19.10;85.80;;;;;;5068014;28;20112;-75
2021/07/30 10:53:36;;;;;;;5.83;2.53;;;19.20;86.40;;;;;;5067712;28;20164;-79
2021/07/30 10:56:22;;;;;;;6.68;3.13;;;19.40;85.90;;;;;;5067446;28;20268;-78
2021/07/30 10:58:53;;;;;;;7.30;3.03;;;19.50;85.20;;;;;;5065017;28;20424;-78
2021/07/30 11:01:22;;;;;;;5.95;2.30;;;19.40;84.80;;;;;;5069028;28;20017;-74
2021/07/30 11:03:51;;;;;;;4.88;2.50;;;19.50;85.00;;;;;;5068300;28;20029;-76
2021/07/30 11:06:29;;;;;;;6.68;2.70;;;19.50;84.80;;;;;;5070723;28;20476;-77
2021/07/30 11:09:04;;;;;;;5.32;2.30;;;19.60;84.80;;;;;;5070242;28;20021;-78
2021/07/30 11:11:43;;;;;;;4.82;2.25;;;19.60;84.50;;;;;;5041324;28;20398;-77
2021/07/30 11:14:30;;;;;;;7.18;2.80;;;19.50;85.00;;;;;;5039183;28;20059;-78
2021/07/30 11:16:57;;;;;;;5.78;2.60;;;19.60;85.20;;;;;;5050520;28;20025;-81
2021/07/30 11:19:43;;;;;;;5.65;2.88;;;19.80;85.20;;;;;;5045947;28;20671;-79
2021/07/30 11:22:16;;;;;;;9.73;3.00;;;20.10;84.80;;;;;;5044871;28;20044;-79
2021/07/30 11:24:46;;;;;;;5.13;2.60;;;20.30;84.10;;;;;;5043492;28;20364;-81
2021/07/30 11:27:14;;;;;;;5.60;2.88;;;20.40;83.30;;;;;;5050173;28;20021;-77
2021/07/30 11:29:51;;;;;;;5.93;3.10;;;20.50;83.30;;;;;;5039861;28;20025;-81
2021/07/30 11:32:21;;;;;;;5.85;3.33;;;20.50;83.40;;;;;;5045143;28;20468;-77
2021/07/30 11:34:49;;;;;;;6.00;2.42;;;20.50;83.30;;;;;;5045205;28;20037;-79
2021/07/30 11:37:17;;;;;;;6.10;3.08;;;20.50;83.50;;;;;;5050942;28;20060;-81
2021/07/30 11:39:48;;;;;;;6.38;3.25;;;20.60;83.80;;;;;;5054396;28;20025;-80
2021/07/30 11:42:31;;;;;;;6.80;2.90;;;20.80;83.90;;;;;;5037790;28;20439;-78
2021/07/30 11:45:04;;;;;;;8.10;3.13;;;21.10;83.60;;;;;;5031307;28;20040;-82
2021/07/30 11:47:35;;;;;;;6.68;2.85;;;21.50;83.20;;;;;;5057458;28;20033;-83
2021/07/30 11:50:13;;;;;;;6.78;2.75;;;21.80;82.00;;;;;;5051185;28;20032;-81
2021/07/30 11:52:40;;;;;;;6.53;3.42;;;22.00;81.00;;;;;;5053527;28;20062;-81
2021/07/30 11:55:19;;;;;;;8.00;3.22;;;22.00;80.60;;;;;;5034078;28;20029;-75
2021/07/30 11:57:46;;;;;;;10.30;5.07;;;22.00;80.50;;;;;;5043278;28;20496;-77
2021/07/30 12:00:24;;;;;;;7.57;3.10;;;22.00;80.70;;;;;;5046893;28;20444;-78
2021/07/30 12:02:50;;;;;;;7.07;2.60;;;21.90;80.50;;;;;;5047973;28;20017;-77
2021/07/30 12:05:17;;;;;;;;;;;21.70;80.40;;;;;;5047757;28;20021;-74
2021/07/30 12:07:42;;;;;;;8.02;2.88;;;21.50;80.60;;;;;;5044120;28;19955;-78
2021/07/30 12:10:09;;;;;;;;;;;21.30;80.90;;;;;;5035802;28;20033;-78
2021/07/30 12:12:40;;;;;;;7.90;3.00;;;21.40;81.10;;;;;;5051588;28;19904;-73
2021/07/30 12:15:06;;;;;;;5.82;3.03;;;21.50;81.20;;;;;;5039915;28;20045;-77
2021/07/30 12:17:33;;;;;;;12.05;4.07;;;21.70;81.50;;;;;;5044051;28;20099;-76
2021/07/30 12:20:11;;;;;;;5.10;2.78;;;21.90;81.40;;;;;;5053986;28;20414;-78
2021/07/30 12:22:42;;;;;;;6.40;2.42;;;22.20;81.00;;;;;;5052723;28;20352;-80
2021/07/30 12:25:31;;;;;;;5.47;2.80;;;22.40;80.30;;;;;;5054418;28;20021;-81
2021/07/30 12:28:12;;;;;;;5.72;2.70;;;22.50;79.40;;;;;;5052926;28;20025;-77
2021/07/30 12:30:40;;;;;;;4.80;2.47;;;22.50;78.80;;;;;;5052325;28;20119;-82
2021/07/30 12:33:41;;;;;;;9.23;3.35;;;22.50;78.90;;;;;;5054090;28;20052;-75
2021/07/30 12:36:08;;;;;;;5.30;2.60;;;22.50;79.40;;;;;;5018146;28;20120;-79
2021/07/30 12:38:52;;;;;;;6.72;3.35;;;22.50;79.20;;;;;;5036356;28;20117;-82
2021/07/30 12:41:26;;;;;;;5.07;2.47;;;22.50;79.40;;;;;;5044204;28;20116;-78
2021/07/30 12:43:53;;;;;;;5.03;2.28;;;22.70;79.20;;;;;;5041492;28;20017;-76
2021/07/30 12:46:36;;;;;;;6.63;2.85;;;22.80;79.20;;;;;;5042985;28;20048;-80
2021/07/30 12:49:07;;;;;;;4.20;2.20;;;22.90;78.70;;;;;;5041802;28;20028;-78
2021/07/30 12:51:34;;;;;;;4.32;2.28;;;23.10;77.70;;;;;;5043345;28;20112;-79
2021/07/30 12:54:04;;;;;;;3.65;2.25;;;22.90;76.70;;;;;;5041377;28;20471;-78
2021/07/30 12:57:01;;;;;;;5.15;2.15;;;22.60;76.50;;;;;;5037249;28;20129;-77
2021/07/30 12:59:52;;;;;;;3.53;1.70;;;22.30;76.30;;;;;;5040575;28;20041;-76
2021/07/30 13:02:23;;;;;;;7.35;3.13;;;22.00;77.10;;;;;;5043390;28;20022;-78
2021/07/30 13:04:50;;;;;;;4.50;2.38;;;21.70;77.50;;;;;;5044209;28;20022;-77
2021/07/30 13:07:17;;;;;;;6.32;2.70;;;21.70;78.20;;;;;;5039749;28;20029;-76
2021/07/30 13:09:43;;;;;;;5.70;2.80;;;21.70;79.00;;;;;;5044262;28;20017;-76
2021/07/30 13:12:09;;;;;;;;;;;21.80;79.30;;;;;;5035995;28;20483;-78
2021/07/30 13:14:34;;;;;;;5.65;2.67;;;21.80;78.90;;;;;;5041110;28;19913;-78
2021/07/30 13:17:00;;;;;;;;;;;21.70;78.90;;;;;;5040438;28;20402;-77
2021/07/30 13:19:26;;;;;;;7.85;3.10;;;21.20;78.60;;;;;;5038770;28;20336;-78
2021/07/30 13:21:53;;;;;;;;;;;20.90;80.50;;;;;;5035950;28;20468;-78
2021/07/30 13:24:20;;;;;;;4.93;2.67;;;20.70;81.30;;;;;;5037407;28;20032;-76
2021/07/30 13:26:45;;;;;;;5.47;2.58;;;20.80;81.90;;;;;;5040062;28;20029;-77
2021/07/30 13:29:11;;;;;;;;;;;20.90;82.40;;;;;;5040284;28;20049;-75
2021/07/30 13:31:37;;;;;;;5.97;2.53;;;21.00;82.10;;;;;;5041372;28;20494;-78
2021/07/30 13:34:02;;;;;;;;;;;21.20;82.20;;;;;;5051131;28;20361;-79
2021/07/30 13:36:28;;;;;;;7.93;2.97;;;21.50;82.20;;;;;;5039207;28;19919;-78
2021/07/30 13:38:53;;;;;;;;;;;21.90;82.30;;;;;;5017299;28;20053;-78
2021/07/30 13:41:19;;;;;;;6.30;2.08;;;22.30;81.80;;;;;;5032978;28;19913;-78
2021/07/30 13:43:47;;;;;;;;;;;22.50;81.40;;;;;;5032016;28;20030;-78
2021/07/30 13:46:13;;;;;;;3.53;1.60;;;22.80;81.00;;;;;;5031654;28;19955;-78
2021/07/30 13:48:39;;;;;;;4.22;1.70;;;23.10;81.40;;;;;;5033015;28;20033;-79
2021/07/30 13:51:05;;;;;;;4.47;2.28;;;23.40;80.00;;;;;;5031260;28;20387;-79
2021/07/30 13:53:31;;;;;;;4.60;2.03;;;23.60;79.30;;;;;;5032515;28;20029;-78
2021/07/30 13:55:58;;;;;;;3.47;1.70;;;23.80;79.60;;;;;;5031445;28;20143;-78
2021/07/30 13:58:24;;;;;;;3.85;2.45;;;24.00;77.90;;;;;;5031263;28;20040;-78
2021/07/30 14:00:50;;;;;;;5.88;2.35;;;24.10;76.70;;;;;;5031755;28;20500;-79
2021/07/30 14:03:16;;;;;;;3.65;1.98;;;24.20;75.90;;;;;;5031494;28;20120;-79
2021/07/30 14:05:44;;;;;;;4.35;2.20;;;24.20;74.80;;;;;;5032808;28;20109;-79
2021/07/30 14:08:11;;;;;;;4.43;2.25;;;24.10;74.10;;;;;;5032470;28;20115;-79
2021/07/30 14:10:37;;;;;;;5.25;2.20;;;23.70;74.30;;;;;;5032822;28;20099;-78
2021/07/30 14:13:03;;;;;;;3.72;1.83;;;23.50;74.80;;;;;;5032766;28;20068;-78
2021/07/30 14:15:31;;;;;;;6.57;2.20;;;23.50;75.10;;;;;;5032760;28;20044;-79
2021/07/30 14:17:57;;;;;;;3.50;1.60;;;23.40;74.30;;;;;;4999225;28;20120;-75
2021/07/30 14:20:23;;;;;;;3.80;1.58;;;23.30;74.10;;;;;;5033422;28;20033;-79
2021/07/30 14:22:48;;;;;;;4.28;2.10;;;23.00;74.40;;;;;;5031452;28;20029;-77
2021/07/30 14:25:14;;;;;;;3.03;1.30;;;22.60;74.80;;;;;;5032973;28;20495;-78
2021/07/30 14:27:40;;;;;;;2.75;1.23;;;22.20;75.50;;;;;;5035343;28;20075;-77
2021/07/30 14:30:06;;;;;;;;;;;22.00;76.20;;;;;;5038265;28;20064;-77
2021/07/30 14:32:32;;;;;;;3.45;1.20;;;21.80;76.40;;;;;;5043847;28;19908;-77
2021/07/30 14:34:57;;;;;;;;;;;21.70;77.30;;;;;;5037835;28;20531;-76
2021/07/30 14:37:23;;;;;;;3.35;1.70;;;21.80;77.70;;;;;;5042869;28;19935;-72
2021/07/30 14:39:48;;;;;;;;;;;21.90;77.30;;;;;;5037703;28;20108;-74
2021/07/30 14:42:14;;;;;;;3.35;1.33;;;21.90;76.90;;;;;;5043826;28;19920;-75
2021/07/30 14:44:40;;;;;;;;;;;21.80;76.90;;;;;;5042937;28;20040;-78
2021/07/30 14:47:07;;;;;;;5.65;2.08;;;21.90;77.20;;;;;;5027514;28;19909;-74
2021/07/30 14:49:38;;;;;;;2.17;0.90;;;21.90;77.60;;;;;;5045792;28;20138;-73
2021/07/30 14:52:04;;;;;;;3.38;1.08;;;21.90;76.90;;;;;;5052063;28;20459;-77
2021/07/30 14:54:29;;;;;;;;;;;21.80;76.60;;;;;;5044421;28;20029;-82
2021/07/30 14:56:56;;;;;;;2.53;0.80;;;21.70;76.40;;;;;;5018182;28;19913;-78
2021/07/30 14:59:21;;;;;;;3.17;1.20;;;21.60;76.10;;;;;;5044504;28;20138;-76
2021/07/30 15:01:47;;;;;;;;;;;21.40;76.20;;;;;;5050109;28;20025;-79
2021/07/30 15:04:13;;;;;;;1.92;0.98;;;21.50;76.60;;;;;;5040836;28;20315;-74
2021/07/30 15:06:38;;;;;;;;;;;21.60;76.40;;;;;;5047876;28;20390;-75
2021/07/30 15:09:05;;;;;;;3.17;1.00;;;21.70;76.20;;;;;;5047690;28;19909;-78
2021/07/30 15:11:31;;;;;;;2.83;0.90;;;21.90;76.00;;;;;;5042872;28;20083;-74
2021/07/30 15:13:57;;;;;;;;;;;22.00;75.70;;;;;;5041897;28;20460;-75
2021/07/30 15:16:23;;;;;;;2.67;1.02;;;21.90;75.50;;;;;;5034196;28;19947;-75
2021/07/30 15:18:49;;;;;;;;;;;21.80;75.80;;;;;;5037169;28;20037;-75
2021/07/30 15:21:17;;;;;;;2.85;1.20;;;21.80;76.00;;;;;;5047685;28;20351;-76
2021/07/30 15:23:43;;;;;;;3.63;1.20;;;21.90;76.40;;;;;;5043428;28;20033;-75
2021/07/30 15:26:10;;;;;;;2.65;1.30;;;22.00;76.70;;;;;;5042605;28;20016;-76
2021/07/30 15:28:36;;;;;;;3.70;1.60;;;22.10;76.70;;;;;;5042590;28;20071;-76
2021/07/30 15:31:05;;;;;;;;;;;22.20;76.60;;;;;;5044534;28;20033;-77
2021/07/30 15:33:32;;;;;;;2.83;1.00;;;22.30;76.50;;;;;;5037626;28;19913;-76
2021/07/30 15:36:08;;;;;;;4.18;1.38;;;22.50;76.30;;;;;;5043238;28;20089;-76
2021/07/30 15:38:34;;;;;;;4.75;1.40;;;22.70;75.90;;;;;;5048302;28;20040;-76
2021/07/30 15:41:00;;;;;;;3.35;1.20;;;22.90;75.80;;;;;;5049178;28;20479;-77
2021/07/30 15:43:25;;;;;;;;;;;23.20;75.20;;;;;;5052928;28;20033;-77
2021/07/30 15:45:51;;;;;;;5.35;1.30;;;23.40;75.00;;;;;;5047793;28;19913;-77
2021/07/30 15:48:17;;;;;;;4.05;1.10;;;23.50;73.90;;;;;;5000207;28;20026;-76
2021/07/30 15:50:42;;;;;;;2.65;0.80;;;23.40;72.60;;;;;;5032993;28;20033;-78
2021/07/30 15:53:08;;;;;;;;;;;23.30;72.50;;;;;;5017772;28;20472;-78
2021/07/30 15:55:34;;;;;;;2.50;1.10;;;23.20;73.00;;;;;;5035131;28;19916;-76
2021/07/30 15:58:00;;;;;;;2.80;1.02;;;23.20;72.60;;;;;;5016488;28;20074;-80
2021/07/30 16:00:26;;;;;;;2.60;1.02;;;23.20;72.50;;;;;;5018090;28;20111;-75
2021/07/30 16:02:51;;;;;;;4.15;1.20;;;23.30;72.40;;;;;;5034878;28;20093;-79
2021/07/30 16:05:17;;;;;;;2.95;0.90;;;23.30;72.10;;;;;;5034695;28;20040;-77
2021/07/30 16:07:43;;;;;;;3.42;1.50;;;23.30;71.60;;;;;;5034758;28;20030;-78
2021/07/30 16:10:09;;;;;;;4.43;1.30;;;23.20;71.40;;;;;;5033286;28;20025;-79
2021/07/30 16:12:35;;;;;;;2.60;1.05;;;23.20;71.50;;;;;;5032794;28;20025;-79
2021/07/30 16:15:00;;;;;;;;;;;23.20;71.50;;;;;;5034899;28;20128;-78
2021/07/30 16:17:27;;;;;;;3.13;1.23;;;23.20;71.60;;;;;;5034443;28;20018;-78
2021/07/30 16:19:52;;;;;;;3.90;1.10;;;23.20;71.50;;;;;;5015786;28;20451;-76
2021/07/30 16:22:18;;;;;;;;;;;23.20;71.40;;;;;;5034142;28;20029;-77
2021/07/30 16:24:44;;;;;;;3.05;1.35;;;23.20;71.30;;;;;;5043156;28;19912;-77
2021/07/30 16:27:09;;;;;;;4.03;1.30;;;23.20;71.50;;;;;;5053142;28;20036;-78
2021/07/30 16:29:38;;;;;;;;;;;23.10;71.70;;;;;;5053116;28;20124;-73
2021/07/30 16:32:04;;;;;;;4.43;1.85;;;22.80;71.30;;;;;;5053672;28;19916;-77
2021/07/30 16:34:30;;;;;;;12.32;3.13;;;22.30;72.10;;;;;;5053983;28;20100;-76
2021/07/30 16:36:56;;;;;;;;;;;21.80;73.90;;;;;;5052987;28;20136;-80
2021/07/30 16:39:21;;;;;;;5.93;2.35;;;21.20;74.50;;;;;;5049466;28;19976;-76
2021/07/30 16:41:47;;;;;;;;;;;20.60;76.00;;;;;;5046122;28;20031;-83
2021/07/30 16:44:13;;;;;;;5.10;2.10;;;20.30;76.90;;;;;;5031864;28;19999;-81
2021/07/30 16:46:39;;;;;;;;;;;20.20;77.60;;;;;;5032466;28;20076;-79
2021/07/30 16:49:05;;;;;;;4.95;2.13;;;20.10;77.90;;;;;;5038255;28;19913;-78
2021/07/30 16:51:31;;;;;;;;;;;20.20;78.30;;;;;;5032466;28;20036;-77
2021/07/30 16:53:56;;;;;;;5.15;1.88;;;20.20;78.50;;;;;;5045700;28;20251;-76
2021/07/30 16:56:22;;;;;;;;;;;20.30;78.80;;;;;;5035107;28;20372;-75
2021/07/30 16:58:49;;;;;;;5.10;2.03;;;20.30;79.00;;;;;;5048754;28;20572;-77
2021/07/30 17:01:15;;;;;;;4.63;2.00;;;20.50;79.30;;;;;;5041626;28;20021;-79
2021/07/30 17:03:42;;;;;;;5.65;2.30;;;20.50;79.80;;;;;;5038276;28;20170;-75
2021/07/30 17:06:09;;;;;;;4.47;2.03;;;20.60;80.40;;;;;;5043432;28;20026;-79
2021/07/30 17:08:34;;;;;;;7.20;2.47;;;20.70;80.50;;;;;;5035259;28;20025;-76
2021/07/30 17:11:04;;;;;;;;;;;20.80;80.90;;;;;;5039162;28;20369;-76
2021/07/30 17:13:31;;;;;;;5.55;2.28;;;20.90;81.00;;;;;;5044876;28;19994;-77
2021/07/30 17:15:57;;;;;;;5.53;2.38;;;21.00;80.60;;;;;;5049662;28;20383;-75
2021/07/30 17:18:22;;;;;;;;;;;21.00;80.60;;;;;;5045568;28;20095;-76
2021/07/30 17:20:48;;;;;;;7.78;3.20;;;21.10;80.40;;;;;;5035493;28;19932;-78
2021/07/30 17:23:14;;;;;;;;;;;21.10;80.80;;;;;;5046210;28;20021;-79
2021/07/30 17:25:40;;;;;;;9.65;3.47;;;21.20;80.80;;;;;;5037864;28;19920;-79
2021/07/30 17:28:08;;;;;;;;;;;21.30;81.00;;;;;;5043114;28;20022;-77
2021/07/30 17:30:34;;;;;;;6.57;3.03;;;21.30;80.70;;;;;;5029377;28;19923;-74
2021/07/30 17:33:00;;;;;;;6.47;2.70;;;21.40;81.00;;;;;;5048873;28;20104;-78
2021/07/30 17:35:25;;;;;;;;;;;21.40;81.40;;;;;;5044740;28;20048;-74
2021/07/30 17:37:51;;;;;;;13.00;5.13;;;21.50;81.30;;;;;;5049137;28;19912;-78
2021/07/30 17:40:16;;;;;;;;;;;21.60;81.20;;;;;;5029582;28;20519;-75
2021/07/30 17:42:42;;;;;;;7.25;2.63;;;21.60;80.80;;;;;;5046472;28;19959;-80
2021/07/30 17:45:08;;;;;;;;;;;21.70;80.60;;;;;;5041597;28;20021;-79
2021/07/30 17:47:33;;;;;;;9.57;3.53;;;21.80;80.50;;;;;;5052551;28;19905;-76
2021/07/30 17:49:59;;;;;;;;;;;21.90;79.80;;;;;;5042391;28;20033;-76
2021/07/30 17:52:25;;;;;;;16.92;6.32;;;21.80;79.50;;;;;;5044047;28;19909;-78
2021/07/30 17:54:50;;;;;;;;;;;21.80;79.10;;;;;;5038093;28;20088;-76
2021/07/30 17:57:16;;;;;;;5.32;2.10;;;21.70;79.10;;;;;;5030922;28;20410;-79
2021/07/30 17:59:46;;;;;;;;;;;21.80;79.10;;;;;;5015732;28;20049;-79
2021/07/30 18:02:12;;;;;;;6.78;2.72;;;21.70;79.00;;;;;;5032755;28;19964;-77
2021/07/30 18:04:37;;;;;;;;;;;21.80;78.90;;;;;;5015606;28;20042;-78
2021/07/30 18:07:03;;;;;;;3.22;1.33;;;21.80;78.70;;;;;;5033576;28;19913;-77
2021/07/30 18:09:29;;;;;;;;;;;21.80;77.40;;;;;;5031985;28;20029;-79
2021/07/30 18:11:54;;;;;;;5.40;1.40;;;21.70;77.00;;;;;;5015114;28;19963;-77
2021/07/30 18:14:25;;;;;;;;;;;21.60;76.50;;;;;;5033442;28;20040;-77
2021/07/30 18:16:54;;;;;;;5.30;1.65;;;21.50;76.30;;;;;;5033413;28;20248;-80
2021/07/30 18:19:20;;;;;;;3.80;1.52;;;21.40;76.30;;;;;;5032567;28;20104;-76
2021/07/30 18:21:46;;;;;;;5.10;2.00;;;21.30;76.10;;;;;;5035138;28;20029;-77
2021/07/30 18:24:12;;;;;;;;;;;21.20;76.20;;;;;;5035208;28;20391;-76
2021/07/30 18:26:38;;;;;;;4.13;2.03;;;21.20;76.20;;;;;;5034667;28;19905;-78
2021/07/30 18:29:05;;;;;;;;;;;21.10;76.30;;;;;;5032542;28;20058;-79
2021/07/30 18:31:34;;;;;;;6.22;1.95;;;21.00;76.30;;;;;;5031182;28;20356;-78
2021/07/30 18:34:03;;;;;;;3.67;1.38;;;21.00;76.30;;;;;;5030206;28;20053;-77
2021/07/30 18:36:30;;;;;;;4.40;1.77;;;20.90;76.50;;;;;;5030446;28;20373;-76
2021/07/30 18:38:58;;;;;;;5.35;2.70;;;20.90;76.70;;;;;;5029007;28;20427;-78
2021/07/30 18:41:25;;;;;;;7.07;2.15;;;20.90;76.80;;;;;;5030818;28;20098;-76
2021/07/30 18:43:50;;;;;;;4.82;1.98;;;20.90;77.00;;;;;;5032948;28;20030;-77
2021/07/30 18:46:16;;;;;;;;;;;20.90;77.40;;;;;;5033283;28;20387;-77
2021/07/30 18:48:42;;;;;;;4.75;1.73;;;20.90;77.30;;;;;;5033873;28;19913;-78
2021/07/30 18:51:07;;;;;;;;;;;20.90;77.10;;;;;;5032773;28;20553;-79
2021/07/30 18:53:33;;;;;;;4.45;2.08;;;20.90;77.10;;;;;;5033793;28;19909;-76
2021/07/30 18:55:59;;;;;;;5.25;1.80;;;20.80;77.10;;;;;;5033533;28;20032;-76
2021/07/30 18:58:25;;;;;;;;;;;20.80;77.30;;;;;;5032807;28;20127;-76
2021/07/30 19:00:51;;;;;;;4.18;2.00;;;20.80;77.20;;;;;;5032357;28;19924;-77
2021/07/30 19:03:17;;;;;;;5.15;2.53;;;20.80;77.10;;;;;;5033433;28;20443;-76
2021/07/30 19:05:42;;;;;;;;;;;20.70;77.20;;;;;;5032791;28;20029;-77
2021/07/30 19:08:08;;;;;;;4.18;1.60;;;20.70;77.10;;;;;;5033428;28;19909;-76
2021/07/30 19:10:33;;;;;;;;;;;20.60;77.10;;;;;;5032679;28;20033;-78
2021/07/30 19:13:03;;;;;;;6.88;1.83;;;20.50;77.10;;;;;;5032008;28;19908;-77
2021/07/30 19:15:30;;;;;;;7.10;2.45;;;20.30;77.30;;;;;;5031924;28;20049;-78
2021/07/30 19:17:56;;;;;;;5.05;1.50;;;20.10;77.80;;;;;;5033436;28;20021;-76
2021/07/30 19:20:22;;;;;;;;;;;20.00;78.30;;;;;;5032555;28;20040;-77
2021/07/30 19:22:47;;;;;;;5.05;1.70;;;19.90;78.30;;;;;;5033613;28;20340;-78
2021/07/30 19:25:13;;;;;;;;;;;19.70;78.40;;;;;;5032507;28;20431;-75
2021/07/30 19:27:39;;;;;;;3.72;1.73;;;19.60;78.30;;;;;;5032073;28;19920;-76
2021/07/30 19:30:05;;;;;;;6.93;1.90;;;19.60;78.60;;;;;;5033259;28;20037;-77
2021/07/30 19:32:30;;;;;;;;;;;19.40;78.90;;;;;;5015461;28;20501;-76
2021/07/30 19:34:56;;;;;;;5.72;1.48;;;19.30;79.00;;;;;;5033008;28;20363;-76
2021/07/30 19:37:22;;;;;;;;;;;19.30;79.40;;;;;;5032274;28;20190;-77
2021/07/30 19:39:47;;;;;;;4.13;1.70;;;19.20;79.50;;;;;;5014938;28;20316;-78
2021/07/30 19:42:13;;;;;;;6.18;2.08;;;19.20;79.50;;;;;;5032998;28;20384;-79
2021/07/30 19:44:39;;;;;;;;;;;19.20;79.90;;;;;;5032246;28;20045;-77
2021/07/30 19:47:04;;;;;;;9.73;2.17;;;19.10;79.80;;;;;;5033281;28;19910;-77
2021/07/30 19:49:31;;;;;;;;;;;19.20;80.00;;;;;;5032320;28;20332;-78
2021/07/30 19:51:56;;;;;;;4.32;2.30;;;19.20;80.00;;;;;;5033060;28;19921;-75
2021/07/30 19:54:22;;;;;;;4.97;1.98;;;19.20;80.20;;;;;;5033662;28;20375;-77
2021/07/30 19:56:48;;;;;;;5.40;2.17;;;19.10;80.60;;;;;;5031185;28;20037;-76
2021/07/30 19:59:13;;;;;;;4.18;1.80;;;19.20;81.10;;;;;;5031185;28;20045;-77
2021/07/30 20:01:40;;;;;;;;;;;19.10;81.40;;;;;;5032089;28;20033;-75
2021/07/30 20:04:06;;;;;;;5.70;1.83;;;19.10;81.50;;;;;;5033235;28;19993;-80
2021/07/30 20:06:32;;;;;;;3.90;1.83;;;19.00;81.40;;;;;;5032896;28;20025;-80
2021/07/30 20:08:58;;;;;;;16.73;4.80;;;19.00;82.10;;;;;;5031347;28;20025;-76
2021/07/30 20:11:24;;;;;;;6.25;2.33;;;18.90;82.50;;;;;;5015086;28;20071;-76
2021/07/30 20:13:51;;;;;;;5.25;2.88;;;18.90;82.90;;;;;;5031405;28;20040;-77
2021/07/30 20:16:22;;;;;;;7.15;2.13;;;18.90;83.20;;;;;;5031095;28;20116;-76
2021/07/30 20:18:50;;;;;;;5.70;3.03;;;18.90;83.40;;;;;;5031095;28;20030;-76
2021/07/30 20:21:21;;;;;;;5.65;2.35;;;18.80;83.60;;;;;;5031460;28;20032;-79
2021/07/30 20:23:48;;;;;;;6.97;2.10;;;18.80;83.90;;;;;;5032941;28;20083;-78
2021/07/30 20:26:14;;;;;;;4.80;2.47;;;18.80;83.90;;;;;;5032388;28;20413;-79
2021/07/30 20:28:39;;;;;;;5.25;1.75;;;18.80;84.20;;;;;;5031031;28;20041;-79
2021/07/30 20:31:05;;;;;;;7.28;2.42;;;18.70;84.30;;;;;;5031580;28;20037;-77
2021/07/30 20:33:31;;;;;;;3.50;1.75;;;18.70;84.20;;;;;;5031370;28;20487;-78
2021/07/30 20:35:56;;;;;;;5.18;1.95;;;18.70;84.10;;;;;;5033124;28;20033;-78
2021/07/30 20:38:22;;;;;;;5.55;1.60;;;18.60;84.00;;;;;;5032062;28;20025;-76
2021/07/30 20:40:48;;;;;;;4.43;1.70;;;18.60;84.10;;;;;;5014378;28;20061;-77
2021/07/30 20:43:14;;;;;;;3.85;1.60;;;18.50;84.10;;;;;;5031642;28;20080;-78
2021/07/30 20:45:40;;;;;;;4.13;1.90;;;18.50;84.20;;;;;;5032352;28;20057;-77
2021/07/30 20:48:05;;;;;;;5.13;2.05;;;18.50;84.50;;;;;;5032526;28;20532;-78
2021/07/30 20:50:33;;;;;;;5.07;1.80;;;18.40;84.50;;;;;;5031092;28;20038;-79
2021/07/30 20:52:59;;;;;;;3.75;1.67;;;18.40;84.60;;;;;;5031594;28;20483;-79
2021/07/30 20:55:24;;;;;;;3.70;1.60;;;18.30;84.50;;;;;;5031024;28;20132;-76
2021/07/30 20:57:53;;;;;;;3.50;1.55;;;18.20;84.50;;;;;;5030750;28;20128;-80
2021/07/30 21:00:19;;;;;;;3.90;1.52;;;18.20;84.80;;;;;;5031900;28;20061;-76
2021/07/30 21:02:45;;;;;;;3.97;1.50;;;18.10;84.80;;;;;;5014147;28;20545;-77
2021/07/30 21:05:10;;;;;;;5.10;1.60;;;18.10;85.00;;;;;;5030602;28;20396;-79
2021/07/30 21:07:36;;;;;;;3.28;1.40;;;18.10;85.10;;;;;;5031738;28;20029;-77
2021/07/30 21:10:02;;;;;;;6.50;1.88;;;18.10;85.20;;;;;;5013809;28;20092;-79
2021/07/30 21:12:28;;;;;;;4.72;1.92;;;18.10;85.30;;;;;;5031490;28;20073;-77
2021/07/30 21:14:53;;;;;;;6.45;1.70;;;18.10;85.30;;;;;;5030021;28;20068;-77
2021/07/30 21:17:19;;;;;;;4.63;1.80;;;18.10;85.40;;;;;;5013784;28;20029;-78
2021/07/30 21:19:45;;;;;;;6.25;2.70;;;18.10;85.50;;;;;;5030035;28;20084;-77
2021/07/30 21:22:11;;;;;;;6.00;1.73;;;18.20;85.60;;;;;;5014012;28;20080;-77
2021/07/30 21:24:36;;;;;;;5.75;2.25;;;18.20;85.60;;;;;;4997439;28;20025;-81
2021/07/30 21:27:02;;;;;;;5.22;2.08;;;18.20;85.60;;;;;;5030404;28;20030;-79
2021/07/30 21:29:28;;;;;;;7.32;3.13;;;18.20;85.60;;;;;;5030268;28;20100;-76
2021/07/30 21:31:53;;;;;;;8.07;2.53;;;18.20;85.70;;;;;;5013573;28;20029;-77
2021/07/30 21:34:19;;;;;;;3.42;1.80;;;18.20;85.70;;;;;;5031458;28;20064;-76
2021/07/30 21:36:46;;;;;;;7.50;1.75;;;18.20;85.60;;;;;;5013561;28;20488;-77
2021/07/30 21:39:12;;;;;;;4.53;1.73;;;18.10;85.70;;;;;;5029807;28;20419;-78
2021/07/30 21:41:38;;;;;;;3.90;1.75;;;18.10;85.80;;;;;;5031531;28;20029;-77
2021/07/30 21:44:04;;;;;;;4.13;1.83;;;18.10;85.90;;;;;;5029768;28;20139;-79
2021/07/30 21:46:30;;;;;;;5.57;1.67;;;18.00;86.00;;;;;;5031004;28;20101;-73
2021/07/30 21:48:55;;;;;;;4.28;1.83;;;18.00;86.20;;;;;;5031186;28;20120;-76
2021/07/30 21:51:26;;;;;;;3.72;1.40;;;17.90;86.30;;;;;;5030416;28;20037;-78
2021/07/30 21:53:52;;;;;;;4.50;1.40;;;17.90;86.40;;;;;;5031547;28;20044;-79
2021/07/30 21:56:17;;;;;;;5.75;1.58;;;17.90;86.50;;;;;;5030439;28;20026;-80
2021/07/30 21:58:43;;;;;;;3.22;1.27;;;17.80;86.50;;;;;;5029790;28;20136;-76
2021/07/30 22:01:09;;;;;;;3.42;1.20;;;17.80;86.70;;;;;;5030012;28;20036;-78
2021/07/30 22:03:35;;;;;;;2.22;1.00;;;17.70;86.70;;;;;;5030075;28;20140;-77
2021/07/30 22:06:00;;;;;;;3.45;1.48;;;17.70;86.80;;;;;;5030196;28;20038;-78
2021/07/30 22:08:26;;;;;;;3.88;1.40;;;17.60;86.90;;;;;;5031686;28;20093;-78
2021/07/30 22:10:52;;;;;;;10.45;3.55;;;17.50;87.00;;;;;;5030009;28;20033;-78
2021/07/30 22:13:17;;;;;;;5.72;1.40;;;17.40;87.10;;;;;;5031460;28;20025;-77
2021/07/30 22:15:43;;;;;;;4.97;1.50;;;17.40;87.40;;;;;;5030926;28;20090;-77
2021/07/30 22:18:09;;;;;;;5.10;1.50;;;17.30;87.60;;;;;;5030922;28;20033;-77
2021/07/30 22:20:35;;;;;;;4.10;1.73;;;17.20;87.80;;;;;;5029505;28;20036;-75
2021/07/30 22:23:02;;;;;;;3.78;1.48;;;17.10;88.20;;;;;;5029552;28;20044;-79
2021/07/30 22:25:28;;;;;;;4.13;1.35;;;17.10;88.50;;;;;;5029768;28;20128;-77
2021/07/30 22:27:54;;;;;;;4.63;1.48;;;17.00;88.80;;;;;;5030817;28;20113;-78
2021/07/30 22:30:19;;;;;;;3.88;1.83;;;17.00;89.00;;;;;;5029811;28;20068;-76
2021/07/30 22:32:45;;;;;;;5.05;2.00;;;17.00;89.20;;;;;;5030899;28;20053;-79
2021/07/30 22:35:11;;;;;;;5.68;1.48;;;17.00;89.30;;;;;;5030739;28;20192;-78
2021/07/30 22:37:37;;;;;;;3.85;1.70;;;17.00;89.60;;;;;;5031006;28;20108;-77
2021/07/30 22:40:09;;;;;;;3.85;1.65;;;17.00;89.60;;;;;;5030886;28;20063;-79
2021/07/30 22:42:39;;;;;;;5.70;1.75;;;17.00;89.80;;;;;;5030653;28;20030;-75
2021/07/30 22:45:06;;;;;;;5.43;1.70;;;17.00;89.90;;;;;;5030419;28;20120;-80
2021/07/30 22:47:33;;;;;;;4.95;1.77;;;17.00;90.00;;;;;;5030366;28;20106;-78
2021/07/30 22:49:59;;;;;;;3.97;1.70;;;16.90;90.00;;;;;;5030390;28;20022;-77
2021/07/30 22:52:25;;;;;;;4.18;1.80;;;16.90;90.10;;;;;;5030574;28;20026;-76
2021/07/30 22:54:50;;;;;;;3.95;1.70;;;16.90;90.10;;;;;;5012938;28;20512;-76
2021/07/30 22:57:16;;;;;;;4.38;1.67;;;16.90;90.20;;;;;;5012552;28;20033;-79
2021/07/30 22:59:42;;;;;;;6.68;1.85;;;16.80;90.30;;;;;;5030094;28;20119;-77
2021/07/30 23:02:08;;;;;;;4.93;1.80;;;16.90;90.50;;;;;;4996428;28;20038;-77
2021/07/30 23:04:34;;;;;;;7.05;1.80;;;16.80;90.50;;;;;;5028949;28;20103;-77